Waswanipi, Canada
Current Conditions -  °F | °C
As of 1:18 AM on Monday 22 Dec 2014 (Local Time) from CYNM Reporting Station
Light Snow Light Snow  
Wind Chill: -3°   Ceiling: 1800
Heat Index:   Visibility: 9mi
Dew Point:   Wind: 7mph
Humidity: 92%   Direction: 170°S
Pressure: 30.22"   Gusts: NA
Location:  49.65°N, 76.48°W
Report Text: CYNM 220618Z AUTO 17006KT 9SM -SN OVC018 M13/M14 A3022 RMK ICG SLP259
Loading
Personal Weather Stations






























Interactive Weather Map New forecast layout! Learn more

10-Day Weather Forecast

Advertisements
Track Severe Weather on mobile